Time;durP1;ratioP1;P1;durP2;ratioP2;P2;SDS_P1;SDS_P2;PMS_P1;PMS_P2;Temp;Humidity;BMP_temperature;BMP_pressure;BME280_temperature;BME280_humidity;BME280_pressure;Samples;Min_cycle;Max_cycle;Signal;HPM_P1;HPM_P2
2023/09/12 00:00:48;;;;;;;17.00;11.90;;;22.20;99.90;;;;;;5060400;28;20497;-60
2023/09/12 00:03:16;;;;;;;19.00;12.40;;;22.20;99.90;;;;;;5057035;28;20521;-60
2023/09/12 00:05:42;;;;;;;14.70;10.50;;;22.10;99.90;;;;;;5056640;28;20530;-60
2023/09/12 00:08:09;;;;;;;16.33;11.60;;;22.10;99.90;;;;;;5056691;28;20439;-61
2023/09/12 00:10:36;;;;;;;12.47;10.57;;;22.00;99.90;;;;;;5057007;28;20535;-60
2023/09/12 00:13:03;;;;;;;17.47;12.03;;;22.00;99.90;;;;;;5056748;28;20547;-60
2023/09/12 00:15:31;;;;;;;12.53;9.83;;;22.00;99.90;;;;;;5057120;28;20479;-60
2023/09/12 00:17:59;;;;;;;13.60;10.67;;;22.00;99.90;;;;;;5056641;28;20787;-60
2023/09/12 00:20:26;;;;;;;19.80;11.67;;;22.00;99.90;;;;;;5058850;28;20456;-59
2023/09/12 00:22:54;;;;;;;14.67;9.50;;;22.00;99.90;;;;;;5057313;28;20471;-60
2023/09/12 00:25:21;;;;;;;11.80;9.47;;;21.90;99.90;;;;;;5056574;28;20447;-60
2023/09/12 00:27:48;;;;;;;12.23;9.10;;;21.90;99.90;;;;;;5056545;28;20526;-60
2023/09/12 00:30:15;;;;;;;13.40;9.80;;;21.90;99.90;;;;;;5056421;28;20506;-60
2023/09/12 00:32:42;;;;;;;16.13;9.70;;;21.90;99.90;;;;;;5056467;28;20485;-60
2023/09/12 00:35:10;;;;;;;11.30;9.00;;;21.80;99.90;;;;;;5055994;28;20509;-60
2023/09/12 00:37:37;;;;;;;15.60;9.77;;;21.80;99.90;;;;;;5055791;28;20478;-60
2023/09/12 00:40:06;;;;;;;10.07;8.13;;;21.80;99.90;;;;;;5055982;28;20436;-60
2023/09/12 00:42:32;;;;;;;10.73;8.40;;;21.80;99.90;;;;;;5056311;28;20428;-60
2023/09/12 00:44:59;;;;;;;14.57;9.10;;;21.80;99.90;;;;;;5070956;28;20489;-55
2023/09/12 00:47:28;;;;;;;12.70;9.77;;;21.70;99.90;;;;;;5080188;28;20404;-54
2023/09/12 00:49:57;;;;;;;13.33;11.10;;;21.70;99.90;;;;;;5076022;28;20458;-60
2023/09/12 00:52:26;;;;;;;14.13;10.67;;;21.70;99.90;;;;;;5055988;28;20509;-61
2023/09/12 00:54:53;;;;;;;11.40;8.40;;;21.70;99.90;;;;;;5079793;28;20463;-51
2023/09/12 00:57:21;;;;;;;10.47;9.37;;;21.70;99.90;;;;;;5079871;28;20498;-53
2023/09/12 00:59:48;;;;;;;10.93;9.37;;;21.70;99.90;;;;;;5076991;28;20467;-58
2023/09/12 01:02:15;;;;;;;9.77;8.73;;;21.70;99.90;;;;;;5076130;28;20827;-60
2023/09/12 01:04:43;;;;;;;12.53;9.50;;;21.70;99.90;;;;;;5064569;28;20460;-60
2023/09/12 01:07:10;;;;;;;13.00;8.30;;;21.70;99.90;;;;;;5056028;28;20514;-57
2023/09/12 01:09:38;;;;;;;11.20;9.23;;;21.70;99.90;;;;;;5056287;28;21023;-61
2023/09/12 01:12:06;;;;;;;16.93;10.07;;;21.70;99.90;;;;;;5055982;28;20471;-61
2023/09/12 01:14:33;;;;;;;10.97;9.97;;;21.70;99.90;;;;;;5055863;28;20559;-63
2023/09/12 01:17:01;;;;;;;21.23;10.50;;;21.60;99.90;;;;;;5058256;28;20961;-60
2023/09/12 01:19:28;;;;;;;13.80;9.80;;;21.60;99.90;;;;;;5057847;28;20475;-59
2023/09/12 01:22:25;;;;;;;9.77;8.77;;;21.60;99.90;;;;;;5058246;28;20423;-59
2023/09/12 01:25:22;;;;;;;14.57;9.60;;;21.60;99.90;;;;;;5054622;28;20515;-59
2023/09/12 01:27:53;;;;;;;11.80;9.80;;;21.50;99.90;;;;;;5058356;28;20499;-60
2023/09/12 01:30:23;;;;;;;18.87;10.50;;;21.50;99.90;;;;;;5058085;28;20419;-60
2023/09/12 01:32:51;;;;;;;14.03;9.37;;;21.50;99.90;;;;;;5055652;28;20430;-60
2023/09/12 01:35:18;;;;;;;13.10;10.70;;;21.50;99.90;;;;;;5055322;28;20492;-60
2023/09/12 01:37:45;;;;;;;12.67;10.53;;;21.50;99.90;;;;;;5055139;28;20566;-62
2023/09/12 01:40:12;;;;;;;11.50;9.30;;;21.40;99.90;;;;;;5068516;28;20420;-57
2023/09/12 01:42:43;;;;;;;11.43;10.23;;;21.40;99.90;;;;;;5079079;28;20482;-52
2023/09/12 01:45:15;;;;;;;16.67;10.57;;;21.40;99.90;;;;;;5079072;28;20400;-56
2023/09/12 01:47:42;;;;;;;14.20;9.17;;;21.40;99.90;;;;;;5076709;28;20431;-59
2023/09/12 01:50:12;;;;;;;11.20;10.10;;;21.30;99.90;;;;;;5057907;28;20471;-60
2023/09/12 01:52:40;;;;;;;13.27;10.80;;;21.30;99.90;;;;;;5067292;28;20424;-55
2023/09/12 01:55:09;;;;;;;12.17;9.57;;;21.30;99.90;;;;;;5074462;28;20467;-60
2023/09/12 01:57:36;;;;;;;10.90;9.70;;;21.30;99.90;;;;;;5074394;28;20494;-58
2023/09/12 02:00:04;;;;;;;11.17;9.63;;;21.30;99.90;;;;;;5075918;28;20443;-60
2023/09/12 02:02:32;;;;;;;16.67;10.93;;;21.30;99.90;;;;;;5075410;28;20458;-59
2023/09/12 02:05:08;;;;;;;13.80;10.47;;;21.40;99.90;;;;;;5075984;28;20463;-58
2023/09/12 02:07:41;;;;;;;12.60;8.77;;;21.30;99.90;;;;;;5076107;28;20430;-59
2023/09/12 02:10:09;;;;;;;10.03;8.93;;;21.30;99.90;;;;;;5074633;28;20463;-60
2023/09/12 02:12:36;;;;;;;11.37;10.27;;;21.30;99.90;;;;;;5060854;28;20443;-60
2023/09/12 02:15:04;;;;;;;12.30;9.70;;;21.20;99.90;;;;;;5054690;28;20801;-61
2023/09/12 02:17:32;;;;;;;16.03;10.17;;;21.20;99.90;;;;;;5054342;28;21035;-61
2023/09/12 02:19:59;;;;;;;11.70;10.13;;;21.20;99.90;;;;;;5054635;28;20482;-59
2023/09/12 02:22:26;;;;;;;10.63;9.53;;;21.20;99.90;;;;;;5054613;28;20498;-60
2023/09/12 02:24:53;;;;;;;11.57;10.13;;;21.20;99.90;;;;;;5056532;28;20530;-59
2023/09/12 02:27:20;;;;;;;11.63;8.90;;;21.20;99.90;;;;;;5056835;28;20491;-60
2023/09/12 02:29:46;;;;;;;12.10;10.37;;;21.20;99.90;;;;;;5057213;28;20797;-60
2023/09/12 02:32:14;;;;;;;11.77;9.70;;;21.20;99.90;;;;;;5058017;28;20495;-60
2023/09/12 02:34:42;;;;;;;15.87;11.07;;;21.10;99.90;;;;;;5057323;28;20448;-60
2023/09/12 02:37:09;;;;;;;11.83;10.63;;;21.10;99.90;;;;;;5057736;28;20517;-58
2023/09/12 02:39:35;;;;;;;13.30;10.63;;;21.10;99.90;;;;;;5057328;28;20515;-58
2023/09/12 02:42:03;;;;;;;11.43;9.23;;;21.10;99.90;;;;;;5060310;28;20463;-60
2023/09/12 02:44:29;;;;;;;14.77;12.03;;;21.10;99.90;;;;;;5059595;28;20471;-60
2023/09/12 02:46:56;;;;;;;11.27;10.07;;;21.10;99.90;;;;;;5057623;28;20507;-59
2023/09/12 02:49:23;;;;;;;14.17;11.70;;;21.10;99.90;;;;;;5055823;28;20503;-59
2023/09/12 02:51:51;;;;;;;11.97;10.50;;;21.00;99.90;;;;;;5054073;28;20538;-60
2023/09/12 02:54:18;;;;;;;12.77;10.57;;;21.00;99.90;;;;;;5054816;28;20559;-59
2023/09/12 02:56:45;;;;;;;15.03;11.77;;;21.00;99.90;;;;;;5054468;28;20577;-60
2023/09/12 02:59:12;;;;;;;12.33;11.13;;;20.90;99.90;;;;;;5056992;28;20443;-60
2023/09/12 03:01:41;;;;;;;12.20;9.80;;;20.90;99.90;;;;;;5061289;28;20503;-60
2023/09/12 03:04:08;;;;;;;14.30;10.50;;;20.90;99.90;;;;;;5062260;28;20471;-59
2023/09/12 03:06:35;;;;;;;15.73;10.20;;;20.90;99.90;;;;;;5062915;28;20463;-61
2023/09/12 03:09:04;;;;;;;14.10;10.60;;;21.00;99.90;;;;;;5062628;28;20466;-61
2023/09/12 03:11:31;;;;;;;12.47;9.07;;;21.00;99.90;;;;;;5062605;28;20463;-59
2023/09/12 03:13:58;;;;;;;9.97;8.97;;;21.00;99.90;;;;;;5062383;28;20576;-60
2023/09/12 03:16:25;;;;;;;12.07;9.30;;;21.00;99.90;;;;;;5057697;28;20527;-60
2023/09/12 03:18:54;;;;;;;18.00;10.40;;;21.00;99.90;;;;;;5057592;28;20511;-59
2023/09/12 03:21:21;;;;;;;11.03;9.60;;;21.00;99.90;;;;;;5057845;28;20526;-60
2023/09/12 03:23:48;;;;;;;16.23;9.00;;;21.00;99.90;;;;;;5058173;28;20439;-60
2023/09/12 03:26:16;;;;;;;14.90;10.13;;;21.00;99.90;;;;;;5057688;28;20489;-60
2023/09/12 03:28:43;;;;;;;13.67;9.17;;;21.00;99.90;;;;;;5057575;28;20540;-61
2023/09/12 03:31:13;;;;;;;13.83;10.03;;;21.00;99.90;;;;;;5057321;28;20496;-60
2023/09/12 03:33:40;;;;;;;12.67;8.77;;;21.00;99.90;;;;;;5057208;28;20471;-60
2023/09/12 03:36:07;;;;;;;10.00;8.87;;;21.00;99.90;;;;;;5057604;28;20530;-61
2023/09/12 03:38:34;;;;;;;10.87;8.60;;;21.00;99.90;;;;;;5057376;28;20562;-60
2023/09/12 03:41:02;;;;;;;11.13;8.20;;;21.00;99.90;;;;;;5057413;28;20443;-59
2023/09/12 03:43:30;;;;;;;12.87;8.57;;;21.00;99.90;;;;;;5057059;28;20483;-59
2023/09/12 03:45:57;;;;;;;10.17;7.77;;;20.90;99.90;;;;;;5056915;28;20558;-59
2023/09/12 03:48:24;;;;;;;14.93;7.77;;;20.90;99.90;;;;;;5057255;28;20482;-61
2023/09/12 03:50:51;;;;;;;10.47;7.70;;;20.90;99.90;;;;;;5056859;28;20470;-59
2023/09/12 03:53:18;;;;;;;12.10;8.53;;;20.90;99.90;;;;;;5057250;28;20471;-61
2023/09/12 03:55:45;;;;;;;14.10;8.67;;;20.90;99.90;;;;;;5057484;28;20544;-59
2023/09/12 03:58:12;;;;;;;12.33;9.80;;;20.90;99.90;;;;;;5058615;28;20566;-60
2023/09/12 04:00:40;;;;;;;12.00;9.50;;;20.90;99.90;;;;;;5057060;28;20486;-60
2023/09/12 04:03:07;;;;;;;15.60;8.63;;;20.80;99.90;;;;;;5056679;28;20471;-61
2023/09/12 04:05:34;;;;;;;10.93;9.83;;;20.80;99.90;;;;;;5059341;28;20439;-59
2023/09/12 04:08:01;;;;;;;10.67;8.73;;;20.80;99.90;;;;;;5060864;28;20464;-60
2023/09/12 04:10:28;;;;;;;13.20;10.17;;;20.80;99.90;;;;;;5059475;28;20543;-60
2023/09/12 04:12:55;;;;;;;13.07;10.07;;;20.80;99.90;;;;;;5056325;28;20495;-59
2023/09/12 04:15:22;;;;;;;11.00;9.77;;;20.80;99.90;;;;;;5056576;28;20447;-59
2023/09/12 04:17:50;;;;;;;13.33;9.13;;;20.70;99.90;;;;;;5056305;28;20514;-60
2023/09/12 04:20:17;;;;;;;12.60;8.67;;;20.70;99.90;;;;;;5056798;28;20459;-59
2023/09/12 04:22:44;;;;;;;11.03;8.70;;;20.60;99.90;;;;;;5056791;28;20824;-59
2023/09/12 04:25:11;;;;;;;13.60;9.40;;;20.60;99.90;;;;;;5056375;28;20449;-60
2023/09/12 04:27:38;;;;;;;12.87;9.47;;;20.60;99.90;;;;;;5056624;28;20904;-60
2023/09/12 04:30:06;;;;;;;11.37;9.13;;;20.50;99.90;;;;;;5056187;28;20864;-60
2023/09/12 04:32:32;;;;;;;10.60;8.90;;;20.50;99.90;;;;;;5056223;28;20479;-60
2023/09/12 04:35:01;;;;;;;11.53;9.63;;;20.50;99.90;;;;;;5056086;28;20565;-59
2023/09/12 04:37:28;;;;;;;13.27;10.33;;;20.50;99.90;;;;;;5056058;28;20552;-61
2023/09/12 04:39:55;;;;;;;13.27;10.23;;;20.50;99.90;;;;;;5056096;28;20538;-62
2023/09/12 04:42:22;;;;;;;11.33;9.70;;;20.50;99.90;;;;;;5056037;28;20471;-59
2023/09/12 04:44:49;;;;;;;11.10;9.13;;;20.40;99.90;;;;;;5058186;28;20471;-60
2023/09/12 04:47:16;;;;;;;12.17;10.47;;;20.50;99.90;;;;;;5057930;28;20483;-60
2023/09/12 04:49:45;;;;;;;12.10;10.10;;;20.50;99.90;;;;;;5055871;28;20471;-60
2023/09/12 04:52:13;;;;;;;14.00;10.70;;;20.50;99.90;;;;;;5055825;28;20847;-59
2023/09/12 04:54:40;;;;;;;12.90;9.63;;;20.60;99.90;;;;;;5058267;28;20483;-60
2023/09/12 04:57:07;;;;;;;11.03;9.53;;;20.60;99.90;;;;;;5059186;28;20531;-60
2023/09/12 04:59:36;;;;;;;12.50;10.40;;;20.60;99.90;;;;;;5059038;28;20812;-60
2023/09/12 05:02:03;;;;;;;23.23;10.43;;;20.60;99.90;;;;;;5059386;28;20447;-60
2023/09/12 05:04:30;;;;;;;13.40;10.03;;;20.70;99.90;;;;;;5059565;28;20522;-59
2023/09/12 05:06:57;;;;;;;11.73;10.00;;;20.70;99.90;;;;;;5059089;28;20467;-60
2023/09/12 05:09:25;;;;;;;10.97;9.37;;;20.70;99.90;;;;;;5058793;28;20542;-60
2023/09/12 05:11:52;;;;;;;13.07;10.53;;;20.80;99.90;;;;;;5055865;28;20505;-60
2023/09/12 05:14:19;;;;;;;14.43;9.87;;;20.80;99.90;;;;;;5056142;28;20467;-58
2023/09/12 05:16:46;;;;;;;27.07;10.60;;;21.00;99.90;;;;;;5055395;28;20443;-60
2023/09/12 05:19:13;;;;;;;14.47;10.80;;;20.90;99.90;;;;;;5055476;28;20478;-60
2023/09/12 05:21:39;;;;;;;16.07;11.70;;;20.90;99.90;;;;;;5055262;28;20518;-60
2023/09/12 05:24:07;;;;;;;12.63;10.13;;;20.90;99.90;;;;;;5055988;28;20531;-60
2023/09/12 05:26:35;;;;;;;12.03;9.87;;;20.90;99.90;;;;;;5056302;28;20439;-59
2023/09/12 05:29:02;;;;;;;12.10;10.63;;;20.90;99.90;;;;;;5056704;28;20494;-58
2023/09/12 05:31:29;;;;;;;12.83;10.23;;;21.00;99.90;;;;;;5055278;28;20495;-60
2023/09/12 05:33:56;;;;;;;14.33;11.23;;;21.00;99.90;;;;;;5054998;28;20458;-61
2023/09/12 05:36:22;;;;;;;11.70;10.50;;;21.00;99.90;;;;;;5057179;28;20554;-61
2023/09/12 05:38:49;;;;;;;13.77;10.70;;;21.10;99.90;;;;;;5058720;28;20487;-60
2023/09/12 05:41:16;;;;;;;17.70;12.27;;;21.10;99.90;;;;;;5061162;28;20450;-60
2023/09/12 05:43:44;;;;;;;14.43;10.30;;;21.20;99.90;;;;;;5060048;28;20970;-60
2023/09/12 05:46:11;;;;;;;13.53;10.30;;;21.20;99.90;;;;;;5060425;28;20498;-59
2023/09/12 05:48:38;;;;;;;12.73;11.43;;;21.20;99.90;;;;;;5056347;28;21068;-60
2023/09/12 05:51:05;;;;;;;16.97;10.57;;;21.30;99.90;;;;;;5057752;28;20439;-61
2023/09/12 05:53:32;;;;;;;15.03;10.53;;;21.30;99.90;;;;;;5058054;28;20550;-60
2023/09/12 05:55:59;;;;;;;14.23;10.60;;;21.30;99.90;;;;;;5057461;28;20479;-59
2023/09/12 05:58:25;;;;;;;13.23;11.20;;;21.40;99.90;;;;;;5074604;28;20479;-59
2023/09/12 06:00:54;;;;;;;16.17;12.07;;;21.30;99.90;;;;;;5066965;28;20461;-58
2023/09/12 06:03:20;;;;;;;16.80;12.43;;;21.30;99.90;;;;;;5067208;28;20450;-62
2023/09/12 06:05:47;;;;;;;12.17;10.90;;;21.40;99.90;;;;;;5067674;28;20500;-62
2023/09/12 06:08:14;;;;;;;25.43;13.13;;;21.40;99.90;;;;;;5067824;28;20470;-60
2023/09/12 06:10:41;;;;;;;13.70;11.63;;;21.40;99.90;;;;;;5064398;28;20521;-59
2023/09/12 06:13:08;;;;;;;17.43;12.73;;;21.40;99.90;;;;;;5059417;28;20447;-60
2023/09/12 06:15:36;;;;;;;13.60;11.37;;;21.50;99.90;;;;;;5059451;28;20463;-61
2023/09/12 06:18:05;;;;;;;17.80;12.53;;;21.50;99.90;;;;;;5060110;28;20479;-61
2023/09/12 06:20:32;;;;;;;20.27;12.33;;;21.60;99.90;;;;;;5059349;28;20538;-61
2023/09/12 06:22:59;;;;;;;26.93;14.77;;;21.60;99.90;;;;;;5059591;28;20510;-61
2023/09/12 06:25:26;;;;;;;19.90;13.53;;;21.70;99.90;;;;;;5059660;28;20445;-60
2023/09/12 06:27:53;;;;;;;20.00;11.23;;;21.70;99.90;;;;;;5059577;28;20507;-61
2023/09/12 06:30:20;;;;;;;17.80;11.57;;;21.70;99.90;;;;;;5059747;28;20530;-61
2023/09/12 06:32:47;;;;;;;16.97;12.53;;;21.70;99.90;;;;;;5059632;28;20550;-61
2023/09/12 06:35:15;;;;;;;19.00;12.80;;;21.70;99.90;;;;;;5062370;28;20478;-61
2023/09/12 06:37:42;;;;;;;14.87;12.90;;;21.80;99.90;;;;;;5071819;28;20509;-58
2023/09/12 06:40:10;;;;;;;17.07;12.70;;;21.70;99.90;;;;;;5071671;28;20457;-61
2023/09/12 06:42:36;;;;;;;16.50;12.37;;;21.90;99.90;;;;;;5072025;28;20955;-58
2023/09/12 06:45:04;;;;;;;16.50;12.47;;;22.00;99.90;;;;;;5072012;28;20539;-61
2023/09/12 06:47:30;;;;;;;16.10;11.77;;;22.10;99.90;;;;;;5066689;28;20773;-62
2023/09/12 06:49:59;;;;;;;18.23;11.13;;;22.10;99.90;;;;;;5065081;28;20475;-62
2023/09/12 06:52:27;;;;;;;15.47;10.67;;;22.30;99.90;;;;;;5063461;28;20487;-62
2023/09/12 06:54:54;;;;;;;13.53;11.37;;;22.40;99.90;;;;;;5063380;28;20967;-59
2023/09/12 06:57:21;;;;;;;13.33;11.53;;;22.40;99.90;;;;;;5064016;28;20526;-61
2023/09/12 06:59:49;;;;;;;12.97;10.60;;;22.50;99.90;;;;;;5063840;28;20549;-62
2023/09/12 07:02:18;;;;;;;14.50;10.87;;;22.60;99.90;;;;;;5063987;28;20458;-62
2023/09/12 07:04:45;;;;;;;11.77;9.87;;;22.70;99.90;;;;;;5062923;28;20451;-62
2023/09/12 07:07:11;;;;;;;16.13;10.10;;;22.70;99.90;;;;;;5063600;28;20439;-61
2023/09/12 07:09:40;;;;;;;13.67;8.97;;;22.90;99.90;;;;;;5068019;28;20503;-61
2023/09/12 07:12:07;;;;;;;13.17;8.80;;;22.90;99.90;;;;;;5068486;28;20987;-62
2023/09/12 07:14:34;;;;;;;13.67;8.53;;;23.00;99.90;;;;;;5069917;28;20732;-62
2023/09/12 07:17:01;;;;;;;15.43;8.20;;;23.10;99.90;;;;;;5069321;28;20924;-61
2023/09/12 07:19:29;;;;;;;10.80;8.47;;;24.60;99.90;;;;;;5069278;28;20494;-58
2023/09/12 07:21:56;;;;;;;13.37;7.83;;;23.40;99.90;;;;;;5068497;28;20463;-60
2023/09/12 07:24:26;;;;;;;12.27;8.70;;;23.50;99.90;;;;;;5068531;28;20431;-63
2023/09/12 07:26:54;;;;;;;14.37;8.20;;;23.50;99.90;;;;;;5061888;28;20968;-62
2023/09/12 07:29:23;;;;;;;13.70;8.30;;;23.60;99.90;;;;;;5067931;28;20761;-61
2023/09/12 07:31:53;;;;;;;9.53;7.47;;;23.70;99.90;;;;;;5064854;28;20439;-61
2023/09/12 07:34:20;;;;;;;9.23;7.80;;;23.80;99.90;;;;;;5061182;28;20467;-62
2023/09/12 07:36:47;;;;;;;11.47;7.43;;;23.90;99.90;;;;;;5061889;28;20443;-60
2023/09/12 07:39:14;;;;;;;15.70;8.70;;;24.00;99.90;;;;;;5063610;28;20515;-61
2023/09/12 07:41:41;;;;;;;14.70;6.97;;;24.10;99.90;;;;;;5067319;28;20477;-61
2023/09/12 07:44:11;;;;;;;8.03;6.50;;;24.20;99.90;;;;;;5067771;28;20447;-62
2023/09/12 07:46:38;;;;;;;13.67;8.77;;;24.30;99.90;;;;;;5067350;28;20423;-61
2023/09/12 07:49:05;;;;;;;18.50;9.30;;;24.40;99.90;;;;;;5066703;28;20482;-59
2023/09/12 07:51:31;;;;;;;17.97;8.20;;;24.50;99.90;;;;;;5062794;28;20505;-58
2023/09/12 07:54:00;;;;;;;12.43;8.00;;;24.60;99.90;;;;;;5061348;28;20497;-62
2023/09/12 07:56:27;;;;;;;9.80;7.73;;;24.70;99.90;;;;;;5061573;28;20467;-62
2023/09/12 07:58:55;;;;;;;14.70;7.40;;;24.90;99.90;;;;;;5061452;28;20486;-62
2023/09/12 08:01:23;;;;;;;11.27;6.97;;;25.00;99.90;;;;;;5064679;28;20470;-61
2023/09/12 08:03:50;;;;;;;18.77;7.93;;;25.10;99.90;;;;;;5065463;28;20454;-59
2023/09/12 08:06:17;;;;;;;10.13;7.03;;;25.30;99.90;;;;;;5067179;28;20461;-60
2023/09/12 08:08:44;;;;;;;14.27;6.93;;;25.50;99.90;;;;;;5061669;28;20444;-63
2023/09/12 08:11:11;;;;;;;10.90;7.13;;;25.60;99.90;;;;;;5064793;28;20439;-62
2023/09/12 08:13:41;;;;;;;15.13;6.80;;;26.10;99.90;;;;;;5060990;28;20450;-61
2023/09/12 08:16:08;;;;;;;14.50;6.20;;;27.10;99.90;;;;;;5060335;28;20443;-61
2023/09/12 08:18:36;;;;;;;13.77;6.97;;;28.70;99.90;;;;;;5060113;28;20483;-62
2023/09/12 08:21:03;;;;;;;8.63;6.37;;;30.30;99.90;;;;;;5060354;28;20474;-62
2023/09/12 08:23:30;;;;;;;16.63;6.90;;;32.00;97.40;;;;;;5063257;28;20614;-62
2023/09/12 08:25:57;;;;;;;8.67;6.20;;;33.60;91.80;;;;;;5066137;28;20420;-61
2023/09/12 08:28:24;;;;;;;12.87;9.00;;;35.00;80.20;;;;;;5060857;28;20440;-62
2023/09/12 08:30:51;;;;;;;14.00;7.70;;;36.00;72.60;;;;;;5065461;28;20447;-62
2023/09/12 08:33:18;;;;;;;8.77;6.57;;;36.40;64.30;;;;;;5063124;28;20451;-62
2023/09/12 08:35:46;;;;;;;7.20;5.90;;;36.60;62.20;;;;;;5060820;28;20974;-62
2023/09/12 08:38:13;;;;;;;10.87;8.93;;;37.20;59.60;;;;;;5060564;28;20543;-62
2023/09/12 08:40:40;;;;;;;10.70;6.00;;;37.70;57.50;;;;;;5061353;28;20495;-62
2023/09/12 08:43:08;;;;;;;12.33;7.47;;;38.20;56.10;;;;;;5067763;28;20454;-62
2023/09/12 08:45:36;;;;;;;11.33;7.00;;;38.60;54.60;;;;;;5065511;28;20453;-58
2023/09/12 08:48:06;;;;;;;10.17;7.93;;;38.70;54.30;;;;;;5064301;28;20443;-61
2023/09/12 08:50:34;;;;;;;15.50;8.17;;;38.60;53.70;;;;;;5062510;28;20943;-61
2023/09/12 08:53:03;;;;;;;12.27;7.50;;;38.50;53.60;;;;;;5061959;28;20919;-63
2023/09/12 08:55:30;;;;;;;9.10;6.83;;;38.30;53.70;;;;;;5062288;28;20531;-61
2023/09/12 08:57:58;;;;;;;11.07;6.60;;;38.40;53.00;;;;;;5061748;28;20796;-60
2023/09/12 09:00:27;;;;;;;10.40;7.00;;;38.30;52.80;;;;;;5061960;28;20443;-61
2023/09/12 09:02:54;;;;;;;8.77;6.40;;;38.30;52.40;;;;;;5062191;28;20514;-62
2023/09/12 09:05:23;;;;;;;11.10;5.77;;;38.20;51.90;;;;;;5062952;28;20482;-60
2023/09/12 09:07:50;;;;;;;12.03;6.13;;;38.20;51.10;;;;;;5061876;28;20447;-62
2023/09/12 09:10:22;;;;;;;11.50;5.77;;;38.30;50.80;;;;;;5061845;28;20426;-62
2023/09/12 09:12:51;;;;;;;12.23;6.97;;;38.20;50.70;;;;;;5063033;28;20904;-61
2023/09/12 09:15:22;;;;;;;10.17;5.80;;;38.30;50.20;;;;;;5064195;28;20443;-61
2023/09/12 09:17:50;;;;;;;9.50;5.70;;;38.20;50.20;;;;;;5062254;28;20455;-62
2023/09/12 09:20:24;;;;;;;9.50;6.23;;;38.10;51.00;;;;;;5062061;28;20871;-61
2023/09/12 09:22:59;;;;;;;12.60;6.20;;;37.90;51.20;;;;;;5061200;28;20461;-62
2023/09/12 09:25:27;;;;;;;9.93;6.00;;;37.70;51.70;;;;;;5060435;28;20829;-61
2023/09/12 09:27:54;;;;;;;9.97;5.93;;;37.60;52.20;;;;;;5060419;28;20447;-62
2023/09/12 09:30:40;;;;;;;8.43;5.70;;;37.40;52.50;;;;;;5060372;28;20502;-61
2023/09/12 09:33:07;;;;;;;16.37;6.20;;;37.50;53.00;;;;;;5061614;28;20459;-62
2023/09/12 09:35:35;;;;;;;18.70;7.13;;;37.20;53.30;;;;;;5062031;28;20446;-63
2023/09/12 09:38:03;;;;;;;10.73;6.00;;;36.80;53.80;;;;;;5060039;28;20450;-60
2023/09/12 09:40:32;;;;;;;10.70;6.40;;;36.60;54.00;;;;;;5060288;28;20859;-62
2023/09/12 09:43:01;;;;;;;8.17;6.57;;;36.50;54.70;;;;;;5061566;28;20925;-61
2023/09/12 09:45:28;;;;;;;14.97;6.13;;;36.60;55.20;;;;;;5061329;28;20450;-62
2023/09/12 09:47:59;;;;;;;13.40;6.77;;;36.70;55.10;;;;;;5059005;28;20533;-61
2023/09/12 09:50:27;;;;;;;15.10;9.70;;;36.80;55.10;;;;;;5059669;28;20534;-60
2023/09/12 09:52:57;;;;;;;11.03;7.37;;;36.80;55.00;;;;;;5061345;28;20459;-61
2023/09/12 09:55:24;;;;;;;14.90;7.40;;;36.90;55.80;;;;;;5061621;28;20452;-61
2023/09/12 09:57:53;;;;;;;17.67;8.10;;;36.70;56.70;;;;;;5060034;28;20478;-62
2023/09/12 10:00:22;;;;;;;12.40;7.67;;;36.50;56.90;;;;;;5057504;28;20959;-62
2023/09/12 10:02:51;;;;;;;11.80;6.90;;;36.50;57.40;;;;;;5057377;28;20467;-60
2023/09/12 10:05:19;;;;;;;12.93;7.00;;;36.60;56.80;;;;;;5057370;28;20525;-61
2023/09/12 10:07:50;;;;;;;12.37;7.07;;;36.90;57.40;;;;;;5057463;28;20967;-62
2023/09/12 10:10:19;;;;;;;8.60;7.03;;;36.70;56.30;;;;;;5057384;28;20494;-63
2023/09/12 10:12:52;;;;;;;13.43;7.47;;;36.40;57.20;;;;;;5057100;28;20478;-62
2023/09/12 10:15:25;;;;;;;8.83;7.40;;;35.80;57.70;;;;;;5057963;28;20931;-60
2023/09/12 10:17:56;;;;;;;7.70;6.90;;;35.50;58.60;;;;;;5060143;28;20489;-61
2023/09/12 10:20:28;;;;;;;12.57;7.90;;;35.40;58.90;;;;;;5060350;28;20467;-62
2023/09/12 10:23:07;;;;;;;12.80;8.57;;;35.60;58.60;;;;;;5059575;28;20427;-62
2023/09/12 10:25:37;;;;;;;10.93;8.00;;;35.50;59.00;;;;;;5058458;28;20511;-62
2023/09/12 10:28:06;;;;;;;9.73;7.50;;;35.40;59.70;;;;;;5058359;28;20447;-61
2023/09/12 10:30:35;;;;;;;10.70;9.67;;;35.30;59.30;;;;;;5059526;28;20467;-62
2023/09/12 10:33:04;;;;;;;9.97;7.50;;;35.30;59.70;;;;;;5059056;28;20471;-61
2023/09/12 10:35:32;;;;;;;12.40;9.43;;;35.20;59.70;;;;;;5057316;28;20530;-61
2023/09/12 10:38:03;;;;;;;14.53;8.03;;;35.20;60.30;;;;;;5057275;28;20492;-62
2023/09/12 10:40:32;;;;;;;10.30;8.10;;;35.20;60.00;;;;;;5056883;28;20962;-61
2023/09/12 10:43:00;;;;;;;9.13;8.03;;;35.10;60.20;;;;;;5057946;28;20485;-62
2023/09/12 10:45:28;;;;;;;8.33;7.50;;;35.10;61.20;;;;;;5059892;28;20444;-62
2023/09/12 10:47:57;;;;;;;11.13;9.90;;;35.00;61.60;;;;;;5059482;28;20439;-62
2023/09/12 10:50:24;;;;;;;12.60;8.73;;;34.80;60.80;;;;;;5058386;28;20482;-60
2023/09/12 10:52:51;;;;;;;15.27;8.70;;;34.50;61.30;;;;;;5059159;28;20444;-62
2023/09/12 10:55:19;;;;;;;20.47;8.93;;;34.30;61.90;;;;;;5058739;28;20485;-61
2023/09/12 10:58:02;;;;;;;13.10;9.17;;;34.00;62.20;;;;;;5059091;28;20440;-63
2023/09/12 11:00:32;;;;;;;9.63;8.67;;;33.80;62.80;;;;;;5058698;28;20518;-61
2023/09/12 11:03:40;;;;;;;11.20;7.73;;;33.60;63.80;;;;;;5059152;28;20496;-61
2023/09/12 11:06:21;;;;;;;9.43;7.23;;;33.40;62.60;;;;;;5058241;28;20533;-62
2023/09/12 11:09:18;;;;;;;17.87;6.63;;;33.10;63.40;;;;;;5055575;28;20419;-59
2023/09/12 11:11:47;;;;;;;14.63;7.00;;;33.10;63.70;;;;;;5056619;28;20474;-61
2023/09/12 11:14:15;;;;;;;16.10;7.90;;;33.00;63.50;;;;;;5058044;28;21020;-60
2023/09/12 11:16:43;;;;;;;12.67;7.40;;;32.90;64.40;;;;;;5058240;28;20471;-61
2023/09/12 11:19:23;;;;;;;15.27;7.87;;;32.90;65.10;;;;;;5059483;28;20495;-62
2023/09/12 11:21:51;;;;;;;12.93;6.50;;;32.80;64.80;;;;;;5061487;28;20434;-60
2023/09/12 11:24:19;;;;;;;10.17;7.73;;;32.70;65.70;;;;;;5062320;28;20455;-61
2023/09/12 11:27:00;;;;;;;12.00;7.17;;;32.60;66.10;;;;;;5062227;28;20439;-62
2023/09/12 11:29:35;;;;;;;12.60;7.00;;;32.50;66.00;;;;;;5061527;28;20419;-61
2023/09/12 11:32:03;;;;;;;11.07;7.17;;;32.30;66.70;;;;;;5060214;28;20884;-61
2023/09/12 11:34:38;;;;;;;11.90;6.73;;;32.20;67.30;;;;;;5060421;28;20994;-61
2023/09/12 11:37:05;;;;;;;19.23;8.20;;;32.20;67.80;;;;;;5062444;28;20564;-62
2023/09/12 11:39:34;;;;;;;10.40;7.63;;;32.10;68.30;;;;;;5061736;28;20574;-61
2023/09/12 11:42:02;;;;;;;14.73;8.53;;;32.00;68.50;;;;;;5061826;28;20439;-62
2023/09/12 11:44:30;;;;;;;8.70;7.80;;;32.00;68.90;;;;;;5061858;28;20554;-62
2023/09/12 11:47:03;;;;;;;10.70;7.60;;;31.90;69.00;;;;;;5062274;28;20455;-59
2023/09/12 11:49:36;;;;;;;9.13;7.37;;;31.80;69.20;;;;;;5062954;28;20420;-62
2023/09/12 11:52:04;;;;;;;9.73;8.23;;;31.60;70.50;;;;;;5063016;28;20435;-61
2023/09/12 11:54:31;;;;;;;11.10;7.20;;;31.60;71.00;;;;;;5061685;28;20451;-63
2023/09/12 11:56:59;;;;;;;8.97;8.00;;;31.50;70.80;;;;;;5060798;28;20562;-64
2023/09/12 11:59:27;;;;;;;15.00;7.40;;;31.50;70.80;;;;;;5061206;28;20489;-62
2023/09/12 12:01:54;;;;;;;10.90;7.20;;;31.50;71.20;;;;;;5060442;28;20478;-62
2023/09/12 12:04:22;;;;;;;16.60;10.87;;;31.50;70.50;;;;;;5060091;28;20505;-62
2023/09/12 12:06:52;;;;;;;11.77;8.93;;;31.40;71.50;;;;;;5060609;28;20463;-61
2023/09/12 12:09:20;;;;;;;8.40;7.37;;;31.40;72.10;;;;;;5061074;28;20466;-59
2023/09/12 12:11:47;;;;;;;18.17;7.67;;;31.30;72.40;;;;;;5060375;28;20490;-56
2023/09/12 12:14:16;;;;;;;10.97;7.23;;;31.20;72.20;;;;;;5060217;28;20458;-63
2023/09/12 12:16:44;;;;;;;9.33;7.93;;;31.10;72.70;;;;;;5060090;28;20991;-62
2023/09/12 12:19:14;;;;;;;12.40;8.20;;;30.90;73.20;;;;;;5059852;28;20839;-62
2023/09/12 12:21:41;;;;;;;9.23;6.80;;;30.90;73.40;;;;;;5060578;28;20439;-62
2023/09/12 12:24:12;;;;;;;9.80;6.47;;;30.90;74.20;;;;;;5060457;28;20546;-62
2023/09/12 12:26:41;;;;;;;11.27;6.20;;;31.00;73.50;;;;;;5062180;28;20607;-63
2023/09/12 12:29:08;;;;;;;10.37;7.27;;;31.10;73.10;;;;;;5060558;28;20494;-63
2023/09/12 12:31:35;;;;;;;9.77;7.03;;;31.10;73.80;;;;;;5059760;28;20431;-63
2023/09/12 12:34:03;;;;;;;9.03;6.97;;;31.10;72.90;;;;;;5059803;28;20443;-62
2023/09/12 12:36:31;;;;;;;12.80;9.20;;;31.10;73.60;;;;;;5061241;28;20525;-62
2023/09/12 12:38:58;;;;;;;11.83;8.90;;;31.20;73.70;;;;;;5058981;28;20457;-62
2023/09/12 12:41:30;;;;;;;9.20;7.13;;;31.10;74.30;;;;;;5059719;28;20495;-62